sensor_id;sensor_type;location;lat;lon;timestamp;pressure;altitude;pressure_sealevel;temperature;humidity
43394;BME280;62479;62.642;17.954;2022-09-27T05:10:16;100621.55;;;10.61;78.11
43394;BME280;62479;62.642;17.954;2022-09-27T05:13:42;100624.94;;;10.47;78.11
43394;BME280;62479;62.642;17.954;2022-09-27T05:18:26;100627.17;;;10.53;77.98
43394;BME280;62479;62.642;17.954;2022-09-27T10:03:22;100861.70;;;11.04;75.32
43394;BME280;62479;62.642;17.954;2022-09-27T10:05:51;100861.91;;;11.03;75.80
43394;BME280;62479;62.642;17.954;2022-09-27T10:08:22;100868.95;;;11.01;75.18
43394;BME280;62479;62.642;17.954;2022-09-27T10:10:51;100869.43;;;11.04;75.23
43394;BME280;62479;62.642;17.954;2022-09-27T10:13:21;100870.72;;;11.06;75.59
43394;BME280;62479;62.642;17.954;2022-09-27T10:15:55;100863.12;;;11.33;75.06
43394;BME280;62479;62.642;17.954;2022-09-27T10:18:28;100874.84;;;11.35;73.09
43394;BME280;62479;62.642;17.954;2022-09-27T10:21:03;100874.44;;;11.36;73.50
43394;BME280;62479;62.642;17.954;2022-09-27T10:23:35;100884.18;;;11.34;74.26
43394;BME280;62479;62.642;17.954;2022-09-27T10:26:04;100888.06;;;11.34;73.65
43394;BME280;62479;62.642;17.954;2022-09-27T10:28:35;100885.00;;;11.41;73.60
43394;BME280;62479;62.642;17.954;2022-09-27T10:31:05;100889.29;;;11.21;73.83
43394;BME280;62479;62.642;17.954;2022-09-27T10:33:41;100891.65;;;11.22;73.68
43394;BME280;62479;62.642;17.954;2022-09-27T10:36:24;100895.50;;;11.17;74.89
43394;BME280;62479;62.642;17.954;2022-09-27T10:38:56;100895.64;;;11.12;74.26
43394;BME280;62479;62.642;17.954;2022-09-27T10:41:31;100899.12;;;11.24;74.38
43394;BME280;62479;62.642;17.954;2022-09-27T10:44:22;100900.12;;;11.14;74.51
43394;BME280;62479;62.642;17.954;2022-09-27T10:46:54;100898.42;;;11.42;73.88
43394;BME280;62479;62.642;17.954;2022-09-27T10:49:27;100895.47;;;11.29;74.42
43394;BME280;62479;62.642;17.954;2022-09-27T10:51:59;100898.63;;;11.37;73.79
43394;BME280;62479;62.642;17.954;2022-09-27T10:54:32;100896.20;;;11.42;73.25
43394;BME280;62479;62.642;17.954;2022-09-27T10:57:03;100904.23;;;11.50;73.51
43394;BME280;62479;62.642;17.954;2022-09-27T10:59:35;100909.42;;;11.46;73.80
43394;BME280;62479;62.642;17.954;2022-09-27T11:02:05;100913.89;;;11.57;73.38
43394;BME280;62479;62.642;17.954;2022-09-27T11:04:36;100915.67;;;11.34;73.65
43394;BME280;62479;62.642;17.954;2022-09-27T11:07:11;100916.27;;;11.46;73.97
43394;BME280;62479;62.642;17.954;2022-09-27T11:09:47;100919.82;;;11.61;73.13
43394;BME280;62479;62.642;17.954;2022-09-27T11:12:16;100922.34;;;11.53;74.28
43394;BME280;62479;62.642;17.954;2022-09-27T11:14:52;100921.70;;;11.47;74.49
43394;BME280;62479;62.642;17.954;2022-09-27T11:17:36;100925.67;;;11.31;75.29
43394;BME280;62479;62.642;17.954;2022-09-27T11:20:15;100925.72;;;11.31;74.56
43394;BME280;62479;62.642;17.954;2022-09-27T11:23:02;100926.53;;;11.31;74.72
43394;BME280;62479;62.642;17.954;2022-09-27T11:25:40;100930.18;;;11.40;74.75
43394;BME280;62479;62.642;17.954;2022-09-27T11:28:20;100926.18;;;11.35;73.33
43394;BME280;62479;62.642;17.954;2022-09-27T11:30:57;100926.27;;;11.20;74.57
43394;BME280;62479;62.642;17.954;2022-09-27T11:33:41;100927.57;;;11.21;74.29
43394;BME280;62479;62.642;17.954;2022-09-27T11:36:20;100932.95;;;11.33;73.67
43394;BME280;62479;62.642;17.954;2022-09-27T11:39:00;100936.65;;;11.35;74.19
43394;BME280;62479;62.642;17.954;2022-09-27T11:41:43;100935.58;;;11.30;74.90
43394;BME280;62479;62.642;17.954;2022-09-27T11:44:29;100935.79;;;11.23;75.26
43394;BME280;62479;62.642;17.954;2022-09-27T11:47:05;100941.51;;;11.32;75.44
43394;BME280;62479;62.642;17.954;2022-09-27T11:49:57;100937.99;;;11.30;74.48
43394;BME280;62479;62.642;17.954;2022-09-27T11:52:41;100942.62;;;11.62;73.24
43394;BME280;62479;62.642;17.954;2022-09-27T11:55:25;100939.16;;;11.68;72.60
43394;BME280;62479;62.642;17.954;2022-09-27T11:58:05;100936.47;;;11.74;72.98
43394;BME280;62479;62.642;17.954;2022-09-27T12:00:47;100936.61;;;11.70;72.75
43394;BME280;62479;62.642;17.954;2022-09-27T12:03:58;100935.57;;;11.82;72.00
43394;BME280;62479;62.642;17.954;2022-09-27T12:06:40;100936.29;;;11.82;73.10
43394;BME280;62479;62.642;17.954;2022-09-27T12:09:16;100941.94;;;11.91;72.82
43394;BME280;62479;62.642;17.954;2022-09-27T12:11:47;100942.35;;;12.03;73.14
43394;BME280;62479;62.642;17.954;2022-09-27T12:14:20;100945.90;;;12.21;71.22
43394;BME280;62479;62.642;17.954;2022-09-27T12:16:51;100945.84;;;12.04;71.21
43394;BME280;62479;62.642;17.954;2022-09-27T12:19:24;100948.11;;;12.01;71.09
43394;BME280;62479;62.642;17.954;2022-09-27T12:21:55;100951.65;;;11.90;70.99
43394;BME280;62479;62.642;17.954;2022-09-27T12:24:26;100956.22;;;11.81;71.70
43394;BME280;62479;62.642;17.954;2022-09-27T12:27:00;100959.62;;;11.60;71.76
43394;BME280;62479;62.642;17.954;2022-09-27T12:29:32;100956.92;;;11.69;72.29
43394;BME280;62479;62.642;17.954;2022-09-27T12:32:09;100953.66;;;11.85;72.05
43394;BME280;62479;62.642;17.954;2022-09-27T12:34:45;100950.50;;;11.84;72.29
43394;BME280;62479;62.642;17.954;2022-09-27T12:37:18;100948.57;;;11.86;71.06
43394;BME280;62479;62.642;17.954;2022-09-27T12:39:52;100946.27;;;11.98;71.56
43394;BME280;62479;62.642;17.954;2022-09-27T12:42:24;100947.02;;;12.04;71.64
43394;BME280;62479;62.642;17.954;2022-09-27T12:44:55;100949.96;;;12.06;71.59
43394;BME280;62479;62.642;17.954;2022-09-27T12:47:36;100947.52;;;12.01;71.54
43394;BME280;62479;62.642;17.954;2022-09-27T12:50:13;100948.25;;;12.15;70.18
43394;BME280;62479;62.642;17.954;2022-09-27T12:52:49;100953.26;;;12.28;69.44
43394;BME280;62479;62.642;17.954;2022-09-27T12:55:33;100953.47;;;12.19;70.74
43394;BME280;62479;62.642;17.954;2022-09-27T12:58:21;100953.29;;;12.24;69.72
43394;BME280;62479;62.642;17.954;2022-09-27T13:00:57;100956.47;;;12.15;69.74
43394;BME280;62479;62.642;17.954;2022-09-27T13:03:35;100957.08;;;11.93;70.26
43394;BME280;62479;62.642;17.954;2022-09-27T13:06:23;100962.09;;;11.86;71.05
43394;BME280;62479;62.642;17.954;2022-09-27T13:09:15;100965.43;;;11.89;71.05
43394;BME280;62479;62.642;17.954;2022-09-27T13:11:57;100965.13;;;11.92;70.70
43394;BME280;62479;62.642;17.954;2022-09-27T13:14:32;100964.53;;;11.80;70.43
43394;BME280;62479;62.642;17.954;2022-09-27T13:17:02;100965.59;;;11.67;70.39
43394;BME280;62479;62.642;17.954;2022-09-27T13:19:48;100963.05;;;11.61;71.78
43394;BME280;62479;62.642;17.954;2022-09-27T13:22:36;100966.88;;;11.58;71.73
43394;BME280;62479;62.642;17.954;2022-09-27T13:25:46;100963.68;;;11.43;72.02
43394;BME280;62479;62.642;17.954;2022-09-27T13:28:33;100967.51;;;11.64;71.89
43394;BME280;62479;62.642;17.954;2022-09-27T13:31:03;100966.61;;;11.73;72.13
43394;BME280;62479;62.642;17.954;2022-09-27T13:33:40;100961.26;;;11.83;71.40
43394;BME280;62479;62.642;17.954;2022-09-27T13:36:24;100965.28;;;11.96;70.20
43394;BME280;62479;62.642;17.954;2022-09-27T13:39:12;100968.48;;;12.00;70.22
43394;BME280;62479;62.642;17.954;2022-09-27T13:42:01;100976.00;;;11.78;71.31
43394;BME280;62479;62.642;17.954;2022-09-27T13:44:39;100976.61;;;11.75;70.96
43394;BME280;62479;62.642;17.954;2022-09-27T13:47:21;100983.44;;;11.71;71.07
43394;BME280;62479;62.642;17.954;2022-09-27T13:49:55;100983.21;;;11.63;70.96
43394;BME280;62479;62.642;17.954;2022-09-27T13:53:34;100986.33;;;11.70;71.29
43394;BME280;62479;62.642;17.954;2022-09-27T14:03:14;100994.69;;;11.43;70.95
43394;BME280;62479;62.642;17.954;2022-09-27T14:07:00;101000.50;;;11.46;71.91
43394;BME280;62479;62.642;17.954;2022-09-27T14:15:26;101009.45;;;11.45;72.02
43394;BME280;62479;62.642;17.954;2022-09-27T14:21:33;101014.86;;;11.36;71.19
43394;BME280;62479;62.642;17.954;2022-09-27T14:24:44;101010.64;;;11.25;71.83
43394;BME280;62479;62.642;17.954;2022-09-27T14:27:17;101014.97;;;11.26;71.20
43394;BME280;62479;62.642;17.954;2022-09-27T14:29:48;101017.73;;;11.20;71.65
43394;BME280;62479;62.642;17.954;2022-09-27T14:32:18;101018.87;;;11.20;72.12
43394;BME280;62479;62.642;17.954;2022-09-27T14:49:21;101023.02;;;11.18;72.20
43394;BME280;62479;62.642;17.954;2022-09-27T14:51:51;101023.40;;;11.12;72.01
43394;BME280;62479;62.642;17.954;2022-09-27T14:54:23;101025.99;;;11.06;72.55
43394;BME280;62479;62.642;17.954;2022-09-27T14:56:53;101028.37;;;11.04;72.73
43394;BME280;62479;62.642;17.954;2022-09-27T14:59:25;101030.81;;;11.22;72.39
43394;BME280;62479;62.642;17.954;2022-09-27T15:14:04;101034.70;;;11.28;72.77
43394;BME280;62479;62.642;17.954;2022-09-27T15:16:44;101037.65;;;11.11;73.28
43394;BME280;62479;62.642;17.954;2022-09-27T15:19:15;101040.15;;;11.06;73.08
43394;BME280;62479;62.642;17.954;2022-09-27T15:21:46;101039.91;;;11.06;72.97
43394;BME280;62479;62.642;17.954;2022-09-27T15:24:37;101041.91;;;10.93;72.45
43394;BME280;62479;62.642;17.954;2022-09-27T15:27:28;101045.34;;;10.86;73.05
43394;BME280;62479;62.642;17.954;2022-09-27T15:29:57;101045.97;;;10.84;74.25
43394;BME280;62479;62.642;17.954;2022-09-27T15:32:28;101045.35;;;10.87;74.11
43394;BME280;62479;62.642;17.954;2022-09-27T15:35:05;101049.23;;;10.75;74.05
43394;BME280;62479;62.642;17.954;2022-09-27T15:37:38;101047.76;;;10.90;74.37
43394;BME280;62479;62.642;17.954;2022-09-27T15:41:07;101048.25;;;10.77;74.10
43394;BME280;62479;62.642;17.954;2022-09-27T15:51:44;101052.42;;;10.87;73.32
43394;BME280;62479;62.642;17.954;2022-09-27T15:54:16;101054.30;;;10.81;73.62
43394;BME280;62479;62.642;17.954;2022-09-27T15:56:46;101055.19;;;10.78;74.07
43394;BME280;62479;62.642;17.954;2022-09-27T15:59:19;101054.78;;;10.84;74.35
43394;BME280;62479;62.642;17.954;2022-09-27T16:06:46;101055.29;;;10.64;74.59
43394;BME280;62479;62.642;17.954;2022-09-27T16:09:16;101057.62;;;10.74;74.48
43394;BME280;62479;62.642;17.954;2022-09-27T16:11:46;101057.84;;;10.72;74.34
43394;BME280;62479;62.642;17.954;2022-09-27T16:14:15;101062.33;;;10.51;74.51
43394;BME280;62479;62.642;17.954;2022-09-27T16:16:47;101061.93;;;10.52;75.06
43394;BME280;62479;62.642;17.954;2022-09-27T16:26:28;101063.39;;;10.70;75.34
43394;BME280;62479;62.642;17.954;2022-09-27T16:28:56;101062.72;;;10.91;75.19
43394;BME280;62479;62.642;17.954;2022-09-27T16:31:25;101065.47;;;10.63;75.36
43394;BME280;62479;62.642;17.954;2022-09-27T16:33:54;101064.80;;;10.75;74.75
43394;BME280;62479;62.642;17.954;2022-09-27T16:36:22;101063.63;;;10.80;74.90
43394;BME280;62479;62.642;17.954;2022-09-27T16:38:51;101067.02;;;10.79;75.02
43394;BME280;62479;62.642;17.954;2022-09-27T16:47:02;101069.81;;;10.65;75.31
43394;BME280;62479;62.642;17.954;2022-09-27T16:49:31;101066.09;;;10.70;75.59
43394;BME280;62479;62.642;17.954;2022-09-27T16:52:00;101072.12;;;10.66;75.74
43394;BME280;62479;62.642;17.954;2022-09-27T16:54:30;101068.73;;;10.49;76.34
43394;BME280;62479;62.642;17.954;2022-09-27T16:56:59;101070.56;;;10.32;77.30
43394;BME280;62479;62.642;17.954;2022-09-27T16:59:28;101077.84;;;10.25;78.08
43394;BME280;62479;62.642;17.954;2022-09-27T23:02:27;101233.79;;;9.88;81.12
43394;BME280;62479;62.642;17.954;2022-09-27T23:04:56;101233.29;;;9.91;81.20
43394;BME280;62479;62.642;17.954;2022-09-27T23:07:25;101234.97;;;9.96;81.27
43394;BME280;62479;62.642;17.954;2022-09-27T23:09:54;101236.86;;;10.03;81.22
43394;BME280;62479;62.642;17.954;2022-09-27T23:12:22;101235.73;;;10.01;80.94
43394;BME280;62479;62.642;17.954;2022-09-27T23:14:51;101235.35;;;10.07;80.67
43394;BME280;62479;62.642;17.954;2022-09-27T23:17:20;101233.77;;;10.06;80.46
43394;BME280;62479;62.642;17.954;2022-09-27T23:19:48;101234.58;;;9.94;80.64
43394;BME280;62479;62.642;17.954;2022-09-27T23:22:17;101234.60;;;9.93;80.95
43394;BME280;62479;62.642;17.954;2022-09-27T23:24:47;101231.80;;;9.95;80.98
43394;BME280;62479;62.642;17.954;2022-09-27T23:27:16;101235.59;;;10.12;80.20
43394;BME280;62479;62.642;17.954;2022-09-27T23:29:44;101232.80;;;10.02;80.69
43394;BME280;62479;62.642;17.954;2022-09-27T23:32:13;101234.95;;;10.08;80.89
43394;BME280;62479;62.642;17.954;2022-09-27T23:34:42;101233.95;;;9.97;81.18
43394;BME280;62479;62.642;17.954;2022-09-27T23:37:11;101235.29;;;9.95;80.89
43394;BME280;62479;62.642;17.954;2022-09-27T23:39:40;101235.65;;;10.00;81.01
43394;BME280;62479;62.642;17.954;2022-09-27T23:42:11;101235.80;;;10.07;81.17
43394;BME280;62479;62.642;17.954;2022-09-27T23:44:40;101235.53;;;10.11;81.20
43394;BME280;62479;62.642;17.954;2022-09-27T23:47:10;101233.42;;;9.85;80.80
43394;BME280;62479;62.642;17.954;2022-09-27T23:49:38;101233.34;;;9.99;80.51
43394;BME280;62479;62.642;17.954;2022-09-27T23:52:08;101232.15;;;9.98;80.67
43394;BME280;62479;62.642;17.954;2022-09-27T23:54:38;101229.54;;;9.99;81.22
43394;BME280;62479;62.642;17.954;2022-09-27T23:57:07;101228.10;;;9.98;81.01
43394;BME280;62479;62.642;17.954;2022-09-27T23:59:36;101226.01;;;10.04;81.10
